WZZ68HS LEMG-EPWA
Flight info
| Callsign | WZZ68HS |
|---|---|
| Flight time | N/A |
| Altitude | 32000 |
| Route | RIXUR N851 ISTER DCT NIVDA DCT OMEDA DCT RAPUR DCT TORTU DCT ERTEV DCT MALUG DCT LEDVA DCT NETIR DCT ORTEB DCT KONZI DCT LOGDA |
| Aircraft | A21N/M-SDE1E2E3FGIJ1J4RWXY/LB1 |
Departure
| Time | 2026-05-06 16:45 |
|---|---|
| Airport | Málaga-Costa del Sol Airport (LEMG) |
Arrival
| Time | N/A |
|---|---|
| Airport | Warsaw Chopin Airport (EPWA) |
| Time | Latitude | Longitude | Altitude | Speed | Heading |
|---|---|---|---|---|---|
| 2026-05-06 16:14 | 36.67682 | -4.49510 | 47 ft | 0 kts | 42° |
| 2026-05-06 16:35 | 36.67676 | -4.49516 | 46 ft | 3 kts | 43° |
| 2026-05-06 16:35 | 36.67662 | -4.49533 | 44 ft | 3 kts | 50° |
| 2026-05-06 16:35 | 36.67650 | -4.49554 | 44 ft | 3 kts | 68° |
| 2026-05-06 16:36 | 36.67646 | -4.49575 | 45 ft | 3 kts | 108° |
| 2026-05-06 16:36 | 36.67653 | -4.49592 | 41 ft | 3 kts | 126° |
| 2026-05-06 16:36 | 36.67665 | -4.49610 | 44 ft | 2 kts | 131° |
| 2026-05-06 16:36 | 36.67668 | -4.49614 | 44 ft | 0 kts | 131° |
| 2026-05-06 16:39 | 36.67666 | -4.49611 | 44 ft | 2 kts | 131° |
| 2026-05-06 16:39 | 36.67647 | -4.49597 | 44 ft | 5 kts | 172° |
| 2026-05-06 16:40 | 36.67609 | -4.49622 | 47 ft | 8 kts | 218° |
| 2026-05-06 16:40 | 36.67562 | -4.49679 | 48 ft | 11 kts | 254° |
| 2026-05-06 16:40 | 36.67599 | -4.49766 | 49 ft | 13 kts | 312° |
| 2026-05-06 16:40 | 36.67660 | -4.49850 | 48 ft | 14 kts | 311° |
| 2026-05-06 16:41 | 36.67726 | -4.49943 | 49 ft | 15 kts | 311° |
| 2026-05-06 16:41 | 36.67797 | -4.50045 | 48 ft | 16 kts | 311° |
| 2026-05-06 16:41 | 36.67874 | -4.50151 | 49 ft | 17 kts | 312° |
| 2026-05-06 16:41 | 36.67955 | -4.50264 | 50 ft | 18 kts | 311° |
| 2026-05-06 16:42 | 36.68028 | -4.50367 | 49 ft | 10 kts | 312° |
| 2026-05-06 16:42 | 36.68074 | -4.50431 | 49 ft | 10 kts | 312° |
| 2026-05-06 16:42 | 36.68078 | -4.50493 | 49 ft | 9 kts | 223° |
| 2026-05-06 16:42 | 36.68050 | -4.50500 | 54 ft | 1 kts | 169° |
| 2026-05-06 16:43 | 36.68042 | -4.50498 | 54 ft | 4 kts | 167° |
| 2026-05-06 16:43 | 36.67999 | -4.50483 | 57 ft | 9 kts | 162° |
| 2026-05-06 16:43 | 36.67934 | -4.50456 | 59 ft | 11 kts | 161° |
| 2026-05-06 16:43 | 36.67864 | -4.50426 | 54 ft | 9 kts | 154° |
| 2026-05-06 16:44 | 36.67850 | -4.50412 | 60 ft | 0 kts | 134° |
| 2026-05-06 16:44 | 36.67808 | -4.50356 | 60 ft | 37 kts | 132° |
| 2026-05-06 16:44 | 36.67420 | -4.49811 | 55 ft | 131 kts | 131° |
| 2026-05-06 16:45 | 36.66648 | -4.48725 | 436 ft | 180 kts | 132° |
| 2026-05-06 16:45 | 36.65809 | -4.47550 | 1702 ft | 185 kts | 135° |
| 2026-05-06 16:45 | 36.64913 | -4.46336 | 2342 ft | 196 kts | 134° |
| 2026-05-06 16:45 | 36.63975 | -4.45054 | 2940 ft | 204 kts | 132° |
| 2026-05-06 16:46 | 36.63339 | -4.44166 | 3337 ft | 211 kts | 131° |
| 2026-05-06 16:46 | 36.62330 | -4.42744 | 3799 ft | 229 kts | 130° |
| 2026-05-06 16:46 | 36.61230 | -4.41203 | 4297 ft | 245 kts | 130° |
| 2026-05-06 16:46 | 36.60139 | -4.39526 | 4999 ft | 252 kts | 118° |
| 2026-05-06 16:47 | 36.59552 | -4.37488 | 5813 ft | 251 kts | 101° |
| 2026-05-06 16:47 | 36.59213 | -4.35348 | 6587 ft | 254 kts | 99° |
| 2026-05-06 16:47 | 36.58878 | -4.33175 | 7291 ft | 258 kts | 100° |
| 2026-05-06 16:47 | 36.58525 | -4.30957 | 7964 ft | 264 kts | 101° |
| 2026-05-06 16:48 | 36.58194 | -4.28692 | 8660 ft | 268 kts | 95° |
| 2026-05-06 16:48 | 36.58237 | -4.26338 | 9201 ft | 280 kts | 85° |
| 2026-05-06 16:48 | 36.58442 | -4.23870 | 9651 ft | 295 kts | 84° |
| 2026-05-06 16:48 | 36.58661 | -4.21298 | 10227 ft | 301 kts | 84° |
| 2026-05-06 16:49 | 36.58872 | -4.18687 | 10893 ft | 305 kts | 85° |
| 2026-05-06 16:49 | 36.59078 | -4.16047 | 11581 ft | 308 kts | 85° |
| 2026-05-06 16:49 | 36.59282 | -4.13377 | 12258 ft | 312 kts | 85° |
| 2026-05-06 16:49 | 36.59485 | -4.10678 | 12945 ft | 315 kts | 85° |
| 2026-05-06 16:50 | 36.59767 | -4.07961 | 13618 ft | 319 kts | 76° |
| 2026-05-06 16:50 | 36.60636 | -4.05408 | 14206 ft | 323 kts | 60° |
| 2026-05-06 16:50 | 36.61812 | -4.03001 | 14770 ft | 327 kts | 58° |
| 2026-05-06 16:50 | 36.63031 | -4.00593 | 15344 ft | 332 kts | 55° |
| 2026-05-06 16:51 | 36.64496 | -3.98303 | 15672 ft | 345 kts | 48° |
| 2026-05-06 16:51 | 36.66122 | -3.96018 | 15931 ft | 361 kts | 48° |
| 2026-05-06 16:51 | 36.67820 | -3.93637 | 16232 ft | 373 kts | 48° |
| 2026-05-06 16:51 | 36.69544 | -3.91195 | 16779 ft | 378 kts | 48° |
| 2026-05-06 16:52 | 36.71282 | -3.88703 | 17394 ft | 381 kts | 49° |
| 2026-05-06 16:52 | 36.73022 | -3.86187 | 17997 ft | 385 kts | 49° |
| 2026-05-06 16:52 | 36.74774 | -3.83644 | 18519 ft | 389 kts | 49° |
| 2026-05-06 16:52 | 36.76543 | -3.81070 | 18990 ft | 393 kts | 49° |
| 2026-05-06 16:53 | 36.78338 | -3.78462 | 19447 ft | 398 kts | 49° |
| 2026-05-06 16:53 | 36.80155 | -3.75822 | 19897 ft | 404 kts | 48° |
| 2026-05-06 16:53 | 36.81994 | -3.73150 | 20346 ft | 408 kts | 48° |
| 2026-05-06 16:53 | 36.83850 | -3.70450 | 20789 ft | 413 kts | 48° |
| 2026-05-06 16:54 | 36.85732 | -3.67714 | 21213 ft | 417 kts | 48° |
| 2026-05-06 16:54 | 36.87630 | -3.64945 | 21651 ft | 423 kts | 48° |
| 2026-05-06 16:54 | 36.89564 | -3.62148 | 22095 ft | 427 kts | 47° |
| 2026-05-06 16:54 | 36.91515 | -3.59319 | 22543 ft | 432 kts | 48° |
| 2026-05-06 16:55 | 36.93475 | -3.56452 | 22969 ft | 436 kts | 48° |
| 2026-05-06 16:55 | 36.95453 | -3.53554 | 23485 ft | 439 kts | 48° |
| 2026-05-06 16:55 | 36.97445 | -3.50638 | 23921 ft | 442 kts | 48° |
| 2026-05-06 16:55 | 36.99445 | -3.47709 | 24294 ft | 445 kts | 48° |
| 2026-05-06 16:56 | 37.01459 | -3.44756 | 24652 ft | 448 kts | 48° |
| 2026-05-06 16:56 | 37.03489 | -3.41780 | 24968 ft | 451 kts | 48° |
| 2026-05-06 16:56 | 37.05533 | -3.38781 | 25284 ft | 455 kts | 48° |
| 2026-05-06 16:56 | 37.07566 | -3.35791 | 25608 ft | 458 kts | 48° |
| 2026-05-06 16:57 | 37.09660 | -3.32702 | 25931 ft | 462 kts | 48° |
| 2026-05-06 16:57 | 37.11756 | -3.29625 | 26254 ft | 465 kts | 48° |
| 2026-05-06 16:57 | 37.13861 | -3.26539 | 26576 ft | 468 kts | 48° |
| 2026-05-06 16:57 | 37.15949 | -3.23463 | 26879 ft | 470 kts | 48° |
| 2026-05-06 16:58 | 37.18072 | -3.20331 | 27198 ft | 472 kts | 48° |
| 2026-05-06 16:58 | 37.20201 | -3.17186 | 27511 ft | 475 kts | 48° |
| 2026-05-06 16:58 | 37.22342 | -3.14017 | 27799 ft | 477 kts | 49° |
| 2026-05-06 16:58 | 37.24490 | -3.10837 | 28080 ft | 479 kts | 49° |
| 2026-05-06 16:59 | 37.26651 | -3.07627 | 28358 ft | 482 kts | 49° |
| 2026-05-06 16:59 | 37.28821 | -3.04407 | 28605 ft | 485 kts | 49° |
| 2026-05-06 16:59 | 37.31002 | -3.01170 | 28863 ft | 487 kts | 49° |
| 2026-05-06 16:59 | 37.33193 | -2.97906 | 29126 ft | 490 kts | 49° |
| 2026-05-06 17:00 | 37.35396 | -2.94622 | 29359 ft | 492 kts | 49° |
| 2026-05-06 17:00 | 37.37609 | -2.91325 | 29621 ft | 495 kts | 49° |
| 2026-05-06 17:00 | 37.39832 | -2.88011 | 29864 ft | 497 kts | 49° |
| 2026-05-06 17:00 | 37.41890 | -2.84517 | 30055 ft | 500 kts | 60° |
| 2026-05-06 17:01 | 37.43478 | -2.80614 | 30257 ft | 501 kts | 65° |
| 2026-05-06 17:01 | 37.44981 | -2.76649 | 30494 ft | 503 kts | 65° |
| 2026-05-06 17:01 | 37.46488 | -2.72669 | 30692 ft | 505 kts | 65° |
| 2026-05-06 17:01 | 37.48009 | -2.68686 | 30887 ft | 507 kts | 65° |
| 2026-05-06 17:02 | 37.49551 | -2.64680 | 31065 ft | 508 kts | 65° |
| 2026-05-06 17:02 | 37.51095 | -2.60671 | 31304 ft | 510 kts | 65° |
| 2026-05-06 17:02 | 37.52645 | -2.56640 | 31532 ft | 512 kts | 65° |
| 2026-05-06 17:02 | 37.54197 | -2.52597 | 31728 ft | 514 kts | 65° |
| 2026-05-06 17:03 | 37.55751 | -2.48536 | 31916 ft | 515 kts | 65° |
| 2026-05-06 17:03 | 37.57305 | -2.44471 | 32121 ft | 515 kts | 65° |
| 2026-05-06 17:03 | 37.58859 | -2.40402 | 32337 ft | 515 kts | 65° |
| 2026-05-06 17:03 | 37.60394 | -2.36382 | 32552 ft | 515 kts | 65° |
| 2026-05-06 17:04 | 37.61946 | -2.32309 | 32764 ft | 515 kts | 65° |
| 2026-05-06 17:04 | 37.63517 | -2.28182 | 32957 ft | 515 kts | 65° |
| 2026-05-06 17:04 | 37.65048 | -2.24152 | 33146 ft | 516 kts | 65° |
| 2026-05-06 17:04 | 37.66618 | -2.20014 | 33330 ft | 516 kts | 65° |
| 2026-05-06 17:05 | 37.68147 | -2.15983 | 33534 ft | 516 kts | 65° |
| 2026-05-06 17:05 | 37.69696 | -2.11892 | 33713 ft | 516 kts | 65° |
| 2026-05-06 17:05 | 37.71241 | -2.07804 | 33879 ft | 516 kts | 65° |
| 2026-05-06 17:05 | 37.72785 | -2.03711 | 34010 ft | 517 kts | 65° |
| 2026-05-06 17:06 | 37.74332 | -1.99605 | 34134 ft | 517 kts | 65° |
| 2026-05-06 17:06 | 37.75876 | -1.95503 | 34270 ft | 517 kts | 65° |
| 2026-05-06 17:06 | 37.77420 | -1.91403 | 34411 ft | 517 kts | 65° |
| 2026-05-06 17:06 | 37.78964 | -1.87301 | 34564 ft | 516 kts | 65° |
| 2026-05-06 17:07 | 37.80499 | -1.83213 | 34746 ft | 514 kts | 65° |
| 2026-05-06 17:07 | 37.82027 | -1.79138 | 34917 ft | 513 kts | 65° |
| 2026-05-06 17:07 | 37.83553 | -1.75058 | 35057 ft | 513 kts | 65° |
| 2026-05-06 17:07 | 37.85073 | -1.70982 | 35185 ft | 512 kts | 65° |
| 2026-05-06 17:08 | 37.86590 | -1.66906 | 35325 ft | 512 kts | 65° |
| 2026-05-06 17:08 | 37.88108 | -1.62838 | 35461 ft | 511 kts | 65° |
| 2026-05-06 17:08 | 37.89624 | -1.58765 | 35587 ft | 511 kts | 65° |
| 2026-05-06 17:09 | 37.92643 | -1.50629 | 35760 ft | 510 kts | 65° |
| 2026-05-06 17:09 | 37.95657 | -1.42492 | 35944 ft | 509 kts | 65° |
| 2026-05-06 17:10 | 37.98655 | -1.34376 | 35912 ft | 508 kts | 65° |
| 2026-05-06 17:10 | 38.01639 | -1.26262 | 35901 ft | 508 kts | 65° |
| 2026-05-06 17:11 | 38.04620 | -1.18134 | 35904 ft | 508 kts | 65° |
| 2026-05-06 17:11 | 38.07605 | -1.10022 | 35899 ft | 507 kts | 65° |
| 2026-05-06 17:12 | 38.10574 | -1.01913 | 35902 ft | 506 kts | 65° |
| 2026-05-06 17:12 | 38.13512 | -0.93843 | 35902 ft | 507 kts | 65° |
| 2026-05-06 17:13 | 38.16460 | -0.85722 | 35915 ft | 506 kts | 65° |
| 2026-05-06 17:13 | 38.19400 | -0.77579 | 35944 ft | 507 kts | 65° |
| 2026-05-06 17:14 | 38.22343 | -0.69430 | 35930 ft | 507 kts | 65° |
| 2026-05-06 17:14 | 38.25284 | -0.61273 | 35934 ft | 507 kts | 65° |
| 2026-05-06 17:15 | 38.28089 | -0.53041 | 35934 ft | 507 kts | 68° |
| 2026-05-06 17:15 | 38.30762 | -0.44732 | 35935 ft | 507 kts | 68° |
| 2026-05-06 17:16 | 38.33411 | -0.36416 | 35930 ft | 507 kts | 68° |
| 2026-05-06 17:16 | 38.36071 | -0.28097 | 35925 ft | 507 kts | 68° |
| 2026-05-06 17:17 | 38.38817 | -0.19824 | 35919 ft | 507 kts | 67° |
| 2026-05-06 17:17 | 38.41576 | -0.11548 | 35911 ft | 507 kts | 67° |
| 2026-05-06 17:18 | 38.44305 | -0.03318 | 35912 ft | 507 kts | 67° |
| 2026-05-06 17:18 | 38.47006 | 0.04973 | 35911 ft | 504 kts | 68° |
| 2026-05-06 17:19 | 38.49647 | 0.13260 | 35921 ft | 504 kts | 68° |
| 2026-05-06 17:19 | 38.52306 | 0.21551 | 35914 ft | 504 kts | 68° |
| 2026-05-06 17:20 | 38.54955 | 0.29845 | 35913 ft | 504 kts | 68° |
| 2026-05-06 17:20 | 38.57596 | 0.38149 | 35914 ft | 504 kts | 68° |
| 2026-05-06 17:21 | 38.60234 | 0.46449 | 35913 ft | 504 kts | 68° |
| 2026-05-06 17:21 | 38.62856 | 0.54749 | 35912 ft | 504 kts | 68° |
| 2026-05-06 17:22 | 38.65479 | 0.63060 | 35937 ft | 504 kts | 68° |
| 2026-05-06 17:22 | 38.68096 | 0.71385 | 35919 ft | 505 kts | 68° |
| 2026-05-06 17:23 | 38.70714 | 0.79716 | 35906 ft | 504 kts | 68° |
| 2026-05-06 17:23 | 38.73314 | 0.88039 | 35915 ft | 503 kts | 68° |
| 2026-05-06 17:24 | 38.75915 | 0.96369 | 35919 ft | 503 kts | 68° |
| 2026-05-06 17:24 | 38.78504 | 1.04696 | 35922 ft | 503 kts | 69° |
| 2026-05-06 17:25 | 38.81084 | 1.13038 | 35925 ft | 503 kts | 68° |
| 2026-05-06 17:25 | 38.83661 | 1.21380 | 35929 ft | 503 kts | 69° |
| 2026-05-06 17:26 | 38.86226 | 1.29715 | 35935 ft | 502 kts | 69° |
| 2026-05-06 17:26 | 38.88787 | 1.38048 | 35953 ft | 503 kts | 69° |
| 2026-05-06 17:27 | 38.91338 | 1.46374 | 35938 ft | 505 kts | 69° |
| 2026-05-06 17:27 | 38.93849 | 1.54788 | 35919 ft | 504 kts | 69° |
| 2026-05-06 17:28 | 38.96325 | 1.63214 | 35922 ft | 504 kts | 69° |
| 2026-05-06 17:28 | 38.98800 | 1.71647 | 35919 ft | 504 kts | 70° |
| 2026-05-06 17:29 | 39.01271 | 1.80078 | 35913 ft | 504 kts | 70° |
| 2026-05-06 17:29 | 39.03739 | 1.88515 | 35918 ft | 504 kts | 70° |
| 2026-05-06 17:30 | 39.06198 | 1.96957 | 35924 ft | 504 kts | 70° |
| 2026-05-06 17:30 | 39.08648 | 2.05403 | 35927 ft | 504 kts | 70° |
| 2026-05-06 17:31 | 39.10633 | 2.12270 | 35939 ft | 504 kts | 70° |
| 2026-05-06 17:31 | 39.13077 | 2.20746 | 35923 ft | 505 kts | 70° |
| 2026-05-06 17:32 | 39.15521 | 2.29231 | 35911 ft | 505 kts | 70° |
| 2026-05-06 17:32 | 39.17958 | 2.37718 | 35921 ft | 505 kts | 70° |
| 2026-05-06 17:33 | 39.20389 | 2.46216 | 35927 ft | 505 kts | 70° |
| 2026-05-06 17:33 | 39.22812 | 2.54720 | 35926 ft | 505 kts | 70° |
| 2026-05-06 17:34 | 39.25225 | 2.63225 | 35927 ft | 505 kts | 70° |
| 2026-05-06 17:34 | 39.27227 | 2.70297 | 35924 ft | 504 kts | 70° |
| 2026-05-06 17:35 | 39.29625 | 2.78788 | 35928 ft | 503 kts | 70° |
| 2026-05-06 17:35 | 39.32016 | 2.87284 | 35958 ft | 504 kts | 70° |
| 2026-05-06 17:36 | 39.35606 | 3.00084 | 35935 ft | 505 kts | 70° |
| 2026-05-06 17:36 | 39.37991 | 3.08624 | 35922 ft | 504 kts | 70° |
| 2026-05-06 17:37 | 39.40354 | 3.17147 | 35927 ft | 504 kts | 70° |
| 2026-05-06 17:37 | 39.42813 | 3.25623 | 35924 ft | 503 kts | 64° |
| 2026-05-06 17:38 | 39.46282 | 3.33468 | 35943 ft | 502 kts | 57° |
| 2026-05-06 17:38 | 39.49879 | 3.41219 | 35932 ft | 502 kts | 58° |
| 2026-05-06 17:39 | 39.53425 | 3.48940 | 35948 ft | 502 kts | 58° |
| 2026-05-06 17:39 | 39.56985 | 3.56728 | 35939 ft | 502 kts | 58° |
| 2026-05-06 17:40 | 39.60543 | 3.64526 | 35935 ft | 503 kts | 58° |
| 2026-05-06 17:40 | 39.64090 | 3.72341 | 35933 ft | 503 kts | 58° |
| 2026-05-06 17:41 | 39.67636 | 3.80160 | 35939 ft | 503 kts | 58° |
| 2026-05-06 17:41 | 39.71182 | 3.87976 | 35941 ft | 502 kts | 58° |
| 2026-05-06 17:42 | 39.74732 | 3.95800 | 35965 ft | 503 kts | 58° |
| 2026-05-06 17:42 | 39.78284 | 4.03639 | 35959 ft | 503 kts | 58° |
| 2026-05-06 17:43 | 39.81815 | 4.11495 | 35965 ft | 503 kts | 58° |
| 2026-05-06 17:43 | 39.85347 | 4.19367 | 35966 ft | 503 kts | 58° |
| 2026-05-06 17:44 | 39.88871 | 4.27225 | 35961 ft | 502 kts | 58° |
| 2026-05-06 17:44 | 39.92393 | 4.35076 | 35961 ft | 502 kts | 58° |
| 2026-05-06 17:45 | 39.95906 | 4.42941 | 35977 ft | 503 kts | 59° |
| 2026-05-06 17:45 | 39.99415 | 4.50827 | 35956 ft | 503 kts | 59° |
| 2026-05-06 17:46 | 40.02925 | 4.58722 | 35928 ft | 503 kts | 59° |
| 2026-05-06 17:46 | 40.06482 | 4.66544 | 35931 ft | 500 kts | 53° |
| 2026-05-06 17:47 | 40.10838 | 4.73601 | 35939 ft | 499 kts | 47° |
| 2026-05-06 17:47 | 40.15295 | 4.80550 | 35937 ft | 499 kts | 47° |
| 2026-05-06 17:48 | 40.19739 | 4.87533 | 35949 ft | 500 kts | 48° |
| 2026-05-06 17:48 | 40.24152 | 4.94494 | 35945 ft | 500 kts | 48° |
| 2026-05-06 17:49 | 40.28578 | 5.01495 | 35936 ft | 499 kts | 48° |
| 2026-05-06 17:49 | 40.32998 | 5.08498 | 35940 ft | 498 kts | 48° |
| 2026-05-06 17:50 | 40.37415 | 5.15511 | 35963 ft | 499 kts | 48° |
| 2026-05-06 17:50 | 40.41829 | 5.22556 | 35947 ft | 500 kts | 49° |
| 2026-05-06 17:51 | 40.46249 | 5.29601 | 35946 ft | 500 kts | 48° |
| 2026-05-06 17:51 | 40.50656 | 5.36646 | 35928 ft | 498 kts | 49° |
| 2026-05-06 17:52 | 40.55044 | 5.43680 | 35943 ft | 497 kts | 49° |
| 2026-05-06 17:52 | 40.59429 | 5.50722 | 35946 ft | 497 kts | 49° |
| 2026-05-06 17:53 | 40.63813 | 5.57768 | 35944 ft | 497 kts | 49° |
| 2026-05-06 17:53 | 40.68188 | 5.64826 | 35944 ft | 498 kts | 49° |
| 2026-05-06 17:54 | 40.72554 | 5.71904 | 35934 ft | 497 kts | 49° |
| 2026-05-06 17:54 | 40.76908 | 5.78966 | 35974 ft | 496 kts | 49° |
| 2026-05-06 17:55 | 40.81279 | 5.86057 | 35949 ft | 498 kts | 49° |
| 2026-05-06 17:55 | 40.85641 | 5.93166 | 35946 ft | 498 kts | 49° |
| 2026-05-06 17:56 | 40.90000 | 6.00284 | 35949 ft | 498 kts | 49° |
| 2026-05-06 17:56 | 40.94322 | 6.07358 | 35950 ft | 498 kts | 49° |
| 2026-05-06 17:57 | 40.98679 | 6.14476 | 35953 ft | 498 kts | 49° |
| 2026-05-06 17:57 | 41.03037 | 6.21610 | 35947 ft | 498 kts | 50° |
| 2026-05-06 17:58 | 41.07385 | 6.28772 | 35952 ft | 498 kts | 50° |
| 2026-05-06 17:58 | 41.11747 | 6.35993 | 35948 ft | 498 kts | 50° |
| 2026-05-06 17:59 | 41.16054 | 6.43119 | 35948 ft | 498 kts | 50° |
| 2026-05-06 17:59 | 41.20390 | 6.50312 | 35939 ft | 498 kts | 50° |
| 2026-05-06 18:00 | 41.24723 | 6.57487 | 35948 ft | 498 kts | 49° |
| 2026-05-06 18:00 | 41.29133 | 6.64582 | 35950 ft | 498 kts | 49° |
| 2026-05-06 18:01 | 41.33546 | 6.71678 | 35949 ft | 498 kts | 49° |
| 2026-05-06 18:01 | 41.37961 | 6.78797 | 35967 ft | 500 kts | 49° |
| 2026-05-06 18:02 | 41.42393 | 6.85971 | 35917 ft | 501 kts | 49° |
| 2026-05-06 18:02 | 41.46795 | 6.93108 | 35936 ft | 497 kts | 49° |
| 2026-05-06 18:03 | 41.51183 | 7.00244 | 35946 ft | 497 kts | 50° |
| 2026-05-06 18:03 | 41.55562 | 7.07375 | 35946 ft | 497 kts | 50° |
| 2026-05-06 18:04 | 41.59961 | 7.14546 | 35952 ft | 500 kts | 50° |
| 2026-05-06 18:04 | 41.64364 | 7.21756 | 35942 ft | 501 kts | 50° |
| 2026-05-06 18:05 | 41.68764 | 7.28978 | 35944 ft | 501 kts | 50° |
| 2026-05-06 18:05 | 41.73157 | 7.36204 | 35944 ft | 501 kts | 50° |
| 2026-05-06 18:06 | 41.77552 | 7.43444 | 35956 ft | 502 kts | 50° |
| 2026-05-06 18:06 | 41.81948 | 7.50713 | 35947 ft | 502 kts | 50° |
| 2026-05-06 18:07 | 41.86339 | 7.57986 | 35944 ft | 502 kts | 50° |
| 2026-05-06 18:07 | 41.90679 | 7.65196 | 35935 ft | 498 kts | 50° |
| 2026-05-06 18:08 | 41.95034 | 7.72444 | 35956 ft | 500 kts | 50° |
| 2026-05-06 18:08 | 41.99405 | 7.79732 | 35941 ft | 501 kts | 51° |
| 2026-05-06 18:09 | 42.03772 | 7.87045 | 35938 ft | 501 kts | 51° |
| 2026-05-06 18:09 | 42.08144 | 7.94363 | 35937 ft | 502 kts | 51° |
| 2026-05-06 18:10 | 42.12496 | 8.01684 | 35929 ft | 499 kts | 51° |
| 2026-05-06 18:10 | 42.16840 | 8.08996 | 35944 ft | 501 kts | 51° |
| 2026-05-06 18:11 | 42.20452 | 8.15102 | 35938 ft | 501 kts | 51° |
| 2026-05-06 18:11 | 42.25530 | 8.23696 | 35930 ft | 501 kts | 51° |
| 2026-05-06 18:12 | 42.29876 | 8.31053 | 35932 ft | 501 kts | 50° |
| 2026-05-06 18:12 | 42.35043 | 8.37240 | 35912 ft | 496 kts | 27° |
| 2026-05-06 18:13 | 42.41304 | 8.40972 | 35925 ft | 491 kts | 18° |
| 2026-05-06 18:13 | 42.47617 | 8.44369 | 35924 ft | 491 kts | 18° |
| 2026-05-06 18:14 | 42.53945 | 8.47879 | 35928 ft | 492 kts | 18° |
| 2026-05-06 18:14 | 42.60271 | 8.51407 | 35924 ft | 492 kts | 18° |
| 2026-05-06 18:15 | 42.66597 | 8.54948 | 35923 ft | 492 kts | 19° |
| 2026-05-06 18:15 | 42.72932 | 8.58490 | 35933 ft | 493 kts | 18° |
| 2026-05-06 18:16 | 42.79286 | 8.62039 | 35920 ft | 494 kts | 18° |
| 2026-05-06 18:16 | 42.85635 | 8.65612 | 35914 ft | 494 kts | 18° |
| 2026-05-06 18:17 | 42.91989 | 8.69188 | 35931 ft | 494 kts | 18° |
| 2026-05-06 18:17 | 42.98346 | 8.72777 | 35900 ft | 495 kts | 18° |
| 2026-05-06 18:18 | 43.04704 | 8.76375 | 35907 ft | 494 kts | 18° |
| 2026-05-06 18:18 | 43.11053 | 8.79977 | 35915 ft | 495 kts | 18° |
| 2026-05-06 18:19 | 43.17412 | 8.83599 | 35909 ft | 495 kts | 18° |
| 2026-05-06 18:19 | 43.23764 | 8.87225 | 35912 ft | 495 kts | 19° |
| 2026-05-06 18:20 | 43.30122 | 8.90849 | 35922 ft | 495 kts | 19° |
| 2026-05-06 18:20 | 43.36504 | 8.94429 | 35898 ft | 494 kts | 14° |
| 2026-05-06 18:21 | 43.39799 | 8.95602 | 35896 ft | 486 kts | 3° |
| 2026-05-06 18:21 | 43.43143 | 8.95944 | 35899 ft | 479 kts | 354° |
| 2026-05-06 18:21 | 43.49748 | 8.95875 | 35921 ft | 479 kts | 353° |
| 2026-05-06 18:22 | 43.56470 | 8.95820 | 35896 ft | 480 kts | 353° |
| 2026-05-06 18:22 | 43.62034 | 8.96492 | 35887 ft | 491 kts | 8° |
| 2026-05-06 18:23 | 43.65285 | 8.98050 | 35886 ft | 499 kts | 22° |
| 2026-05-06 18:23 | 43.68262 | 9.00542 | 35910 ft | 504 kts | 35° |
| 2026-05-06 18:23 | 43.73723 | 9.06658 | 35892 ft | 505 kts | 38° |
| 2026-05-06 18:24 | 43.79165 | 9.12793 | 35877 ft | 503 kts | 37° |
| 2026-05-06 18:24 | 43.84609 | 9.18864 | 35891 ft | 502 kts | 37° |
| 2026-05-06 18:25 | 43.90053 | 9.24916 | 35900 ft | 500 kts | 37° |
| 2026-05-06 18:25 | 43.95464 | 9.30987 | 35903 ft | 500 kts | 38° |
| 2026-05-06 18:26 | 44.00879 | 9.37050 | 35899 ft | 500 kts | 37° |
| 2026-05-06 18:26 | 44.06290 | 9.43123 | 35916 ft | 498 kts | 38° |
| 2026-05-06 18:27 | 44.11674 | 9.49197 | 35890 ft | 499 kts | 38° |
| 2026-05-06 18:27 | 44.17065 | 9.55285 | 35909 ft | 499 kts | 38° |
| 2026-05-06 18:28 | 44.22458 | 9.61388 | 35922 ft | 500 kts | 38° |
| 2026-05-06 18:28 | 44.27846 | 9.67517 | 35910 ft | 500 kts | 38° |
| 2026-05-06 18:29 | 44.33237 | 9.73649 | 35903 ft | 500 kts | 38° |
| 2026-05-06 18:29 | 44.38588 | 9.79761 | 35890 ft | 500 kts | 38° |
| 2026-05-06 18:30 | 44.43974 | 9.85892 | 35881 ft | 501 kts | 38° |
| 2026-05-06 18:30 | 44.49375 | 9.92089 | 35886 ft | 501 kts | 38° |
| 2026-05-06 18:31 | 44.54762 | 9.98291 | 35906 ft | 502 kts | 38° |
| 2026-05-06 18:31 | 44.60174 | 10.04525 | 35894 ft | 506 kts | 38° |
| 2026-05-06 18:32 | 44.65597 | 10.10794 | 35865 ft | 506 kts | 39° |
| 2026-05-06 18:32 | 44.71049 | 10.17098 | 35854 ft | 506 kts | 38° |
| 2026-05-06 18:33 | 44.76461 | 10.23401 | 35854 ft | 502 kts | 38° |
| 2026-05-06 18:33 | 44.81843 | 10.29658 | 35848 ft | 501 kts | 38° |
| 2026-05-06 18:34 | 44.87222 | 10.35913 | 35857 ft | 501 kts | 38° |
| 2026-05-06 18:34 | 44.92590 | 10.42184 | 35886 ft | 501 kts | 38° |
| 2026-05-06 18:35 | 44.97951 | 10.48471 | 35876 ft | 501 kts | 38° |
| 2026-05-06 18:35 | 45.03319 | 10.54766 | 35873 ft | 501 kts | 38° |
| 2026-05-06 18:36 | 45.08682 | 10.61082 | 35888 ft | 501 kts | 39° |
| 2026-05-06 18:36 | 45.14048 | 10.67421 | 35887 ft | 503 kts | 39° |
| 2026-05-06 18:37 | 45.19416 | 10.73772 | 35886 ft | 503 kts | 39° |
| 2026-05-06 18:37 | 45.24777 | 10.80142 | 35873 ft | 502 kts | 39° |
| 2026-05-06 18:38 | 45.30137 | 10.86515 | 35885 ft | 503 kts | 39° |
| 2026-05-06 18:38 | 45.35491 | 10.92903 | 35863 ft | 502 kts | 39° |
| 2026-05-06 18:39 | 45.40831 | 10.99292 | 35875 ft | 502 kts | 39° |
| 2026-05-06 18:40 | 45.48834 | 11.08888 | 35879 ft | 501 kts | 39° |
| 2026-05-06 18:40 | 45.54116 | 11.15252 | 35883 ft | 500 kts | 39° |
| 2026-05-06 18:41 | 45.59434 | 11.21669 | 35892 ft | 500 kts | 39° |
| 2026-05-06 18:41 | 45.64745 | 11.28090 | 35908 ft | 499 kts | 40° |
| 2026-05-06 18:42 | 45.70036 | 11.34505 | 35912 ft | 499 kts | 40° |
| 2026-05-06 18:42 | 45.75327 | 11.40944 | 35920 ft | 499 kts | 40° |
| 2026-05-06 18:43 | 45.80615 | 11.47393 | 35931 ft | 499 kts | 40° |
| 2026-05-06 18:43 | 45.85887 | 11.53832 | 35939 ft | 498 kts | 40° |
| 2026-05-06 18:44 | 45.91156 | 11.60288 | 35940 ft | 498 kts | 40° |
| 2026-05-06 18:44 | 45.96424 | 11.66773 | 35931 ft | 498 kts | 40° |
| 2026-05-06 18:45 | 46.01676 | 11.73234 | 35919 ft | 495 kts | 40° |
| 2026-05-06 18:45 | 46.06899 | 11.79685 | 35933 ft | 495 kts | 40° |
| 2026-05-06 18:46 | 46.12122 | 11.86167 | 35911 ft | 495 kts | 40° |
| 2026-05-06 18:46 | 46.17341 | 11.92641 | 35918 ft | 495 kts | 40° |
| 2026-05-06 18:47 | 46.22564 | 11.99132 | 35909 ft | 495 kts | 40° |
| 2026-05-06 18:47 | 46.27776 | 12.05643 | 35912 ft | 496 kts | 40° |
| 2026-05-06 18:48 | 46.32983 | 12.12176 | 35913 ft | 496 kts | 40° |
| 2026-05-06 18:48 | 46.38179 | 12.18697 | 35914 ft | 494 kts | 40° |
| 2026-05-06 18:49 | 46.43366 | 12.25220 | 35919 ft | 494 kts | 40° |
| 2026-05-06 18:49 | 46.48548 | 12.31752 | 35921 ft | 493 kts | 40° |
| 2026-05-06 18:50 | 46.53720 | 12.38285 | 35934 ft | 492 kts | 40° |
| 2026-05-06 18:50 | 46.58874 | 12.44821 | 35954 ft | 492 kts | 41° |
| 2026-05-06 18:50 | 46.61455 | 12.48103 | 36091 ft | 493 kts | 41° |
| 2026-05-06 18:51 | 46.64035 | 12.51388 | 36328 ft | 492 kts | 41° |
| 2026-05-06 18:51 | 46.66606 | 12.54671 | 36537 ft | 492 kts | 40° |
| 2026-05-06 18:51 | 46.69173 | 12.57964 | 36697 ft | 492 kts | 42° |
| 2026-05-06 18:51 | 46.71537 | 12.61559 | 36839 ft | 491 kts | 52° |
| 2026-05-06 18:52 | 46.73624 | 12.65488 | 36970 ft | 490 kts | 53° |
| 2026-05-06 18:52 | 46.77709 | 12.73434 | 36940 ft | 490 kts | 53° |
| 2026-05-06 18:53 | 46.81807 | 12.81384 | 36942 ft | 491 kts | 53° |
| 2026-05-06 18:53 | 46.85905 | 12.89326 | 36934 ft | 489 kts | 53° |
| 2026-05-06 18:54 | 46.89966 | 12.97221 | 36928 ft | 488 kts | 54° |
| 2026-05-06 18:54 | 46.94076 | 13.05237 | 36912 ft | 489 kts | 54° |
| 2026-05-06 18:55 | 46.98115 | 13.13135 | 36912 ft | 488 kts | 54° |